sensor_id;sensor_type;location;lat;lon;timestamp;P1;durP1;ratioP1;P2;durP2;ratioP2
84729;SDS011;74950;56.832;41.398;2024-03-02T09:13:42;3.70;;;2.67;;
84729;SDS011;74950;56.832;41.398;2024-03-02T09:16:09;6.03;;;3.20;;
84729;SDS011;74950;56.832;41.398;2024-03-02T09:18:36;3.63;;;2.72;;
84729;SDS011;74950;56.832;41.398;2024-03-02T09:21:03;3.20;;;2.45;;
84729;SDS011;74950;56.832;41.398;2024-03-02T09:23:30;3.67;;;2.42;;
84729;SDS011;74950;56.832;41.398;2024-03-02T09:25:56;2.92;;;2.38;;
84729;SDS011;74950;56.832;41.398;2024-03-02T09:28:22;3.17;;;1.77;;
84729;SDS011;74950;56.832;41.398;2024-03-02T09:30:48;2.10;;;1.67;;
84729;SDS011;74950;56.832;41.398;2024-03-02T09:33:15;3.58;;;2.40;;
84729;SDS011;74950;56.832;41.398;2024-03-02T09:35:41;3.65;;;2.50;;
84729;SDS011;74950;56.832;41.398;2024-03-02T09:38:07;3.72;;;2.08;;
84729;SDS011;74950;56.832;41.398;2024-03-02T09:40:33;3.53;;;2.70;;
84729;SDS011;74950;56.832;41.398;2024-03-02T09:42:59;3.00;;;2.28;;
84729;SDS011;74950;56.832;41.398;2024-03-02T09:45:26;3.00;;;2.10;;
84729;SDS011;74950;56.832;41.398;2024-03-02T09:47:52;2.50;;;1.85;;
84729;SDS011;74950;56.832;41.398;2024-03-02T09:50:18;3.25;;;2.42;;
84729;SDS011;74950;56.832;41.398;2024-03-02T09:52:47;37.35;;;13.07;;
84729;SDS011;74950;56.832;41.398;2024-03-02T09:55:16;7.00;;;3.35;;
84729;SDS011;74950;56.832;41.398;2024-03-02T09:57:45;6.22;;;3.28;;
84729;SDS011;74950;56.832;41.398;2024-03-02T10:00:11;3.20;;;1.90;;
84729;SDS011;74950;56.832;41.398;2024-03-02T10:02:41;3.20;;;1.73;;
84729;SDS011;74950;56.832;41.398;2024-03-02T10:05:10;2.20;;;1.98;;
84729;SDS011;74950;56.832;41.398;2024-03-02T10:07:38;5.03;;;2.20;;
84729;SDS011;74950;56.832;41.398;2024-03-02T10:10:14;3.55;;;2.58;;
84729;SDS011;74950;56.832;41.398;2024-03-02T10:12:41;3.88;;;3.20;;
84729;SDS011;74950;56.832;41.398;2024-03-02T10:15:07;6.50;;;4.10;;
84729;SDS011;74950;56.832;41.398;2024-03-02T10:17:35;3.03;;;2.00;;
84729;SDS011;74950;56.832;41.398;2024-03-02T10:20:20;4.32;;;2.15;;
84729;SDS011;74950;56.832;41.398;2024-03-02T10:22:49;4.95;;;1.55;;
84729;SDS011;74950;56.832;41.398;2024-03-02T10:25:28;2.75;;;2.05;;
84729;SDS011;74950;56.832;41.398;2024-03-02T10:27:57;2.60;;;1.67;;
84729;SDS011;74950;56.832;41.398;2024-03-02T10:30:24;2.15;;;1.92;;
84729;SDS011;74950;56.832;41.398;2024-03-02T10:32:52;2.97;;;1.83;;
84729;SDS011;74950;56.832;41.398;2024-03-02T10:35:20;2.92;;;2.35;;
84729;SDS011;74950;56.832;41.398;2024-03-02T10:38:06;4.30;;;2.85;;
84729;SDS011;74950;56.832;41.398;2024-03-02T10:40:32;4.78;;;2.80;;
84729;SDS011;74950;56.832;41.398;2024-03-02T10:42:58;3.67;;;2.03;;
84729;SDS011;74950;56.832;41.398;2024-03-02T10:45:25;3.30;;;2.42;;
84729;SDS011;74950;56.832;41.398;2024-03-02T10:47:51;3.97;;;3.03;;
84729;SDS011;74950;56.832;41.398;2024-03-02T10:50:17;4.22;;;2.20;;
84729;SDS011;74950;56.832;41.398;2024-03-02T10:52:44;2.15;;;1.70;;
84729;SDS011;74950;56.832;41.398;2024-03-02T10:55:11;3.60;;;2.70;;
84729;SDS011;74950;56.832;41.398;2024-03-02T11:00:19;3.03;;;2.13;;
84729;SDS011;74950;56.832;41.398;2024-03-02T11:02:51;3.35;;;2.15;;
84729;SDS011;74950;56.832;41.398;2024-03-02T11:05:22;3.10;;;1.83;;
84729;SDS011;74950;56.832;41.398;2024-03-02T11:07:53;2.78;;;1.70;;
84729;SDS011;74950;56.832;41.398;2024-03-02T11:10:24;4.03;;;2.80;;
84729;SDS011;74950;56.832;41.398;2024-03-02T11:12:53;3.65;;;2.60;;
84729;SDS011;74950;56.832;41.398;2024-03-02T11:15:27;2.88;;;2.47;;
84729;SDS011;74950;56.832;41.398;2024-03-02T11:17:54;3.42;;;3.13;;
84729;SDS011;74950;56.832;41.398;2024-03-02T11:20:20;3.60;;;2.33;;
84729;SDS011;74950;56.832;41.398;2024-03-02T11:22:47;3.28;;;2.10;;
84729;SDS011;74950;56.832;41.398;2024-03-02T11:25:25;3.42;;;2.15;;
84729;SDS011;74950;56.832;41.398;2024-03-02T11:30:48;4.38;;;2.65;;
84729;SDS011;74950;56.832;41.398;2024-03-02T11:33:08;3.75;;;2.70;;
84729;SDS011;74950;56.832;41.398;2024-03-02T11:35:40;3.30;;;2.60;;
84729;SDS011;74950;56.832;41.398;2024-03-02T11:38:14;1.95;;;1.67;;
84729;SDS011;74950;56.832;41.398;2024-03-02T11:40:40;4.28;;;2.88;;
84729;SDS011;74950;56.832;41.398;2024-03-02T11:43:07;25.30;;;10.88;;
84729;SDS011;74950;56.832;41.398;2024-03-02T11:45:35;4.95;;;2.78;;
84729;SDS011;74950;56.832;41.398;2024-03-02T11:48:06;4.70;;;3.15;;
84729;SDS011;74950;56.832;41.398;2024-03-02T11:53:09;3.58;;;2.72;;
84729;SDS011;74950;56.832;41.398;2024-03-02T11:55:39;5.10;;;3.20;;
84729;SDS011;74950;56.832;41.398;2024-03-02T11:58:13;4.32;;;2.92;;
84729;SDS011;74950;56.832;41.398;2024-03-02T12:00:39;2.38;;;1.83;;
84729;SDS011;74950;56.832;41.398;2024-03-02T12:03:09;2.22;;;1.83;;
84729;SDS011;74950;56.832;41.398;2024-03-02T12:05:36;4.90;;;3.13;;
84729;SDS011;74950;56.832;41.398;2024-03-02T12:08:03;3.95;;;2.78;;
84729;SDS011;74950;56.832;41.398;2024-03-02T12:10:30;2.17;;;1.80;;
84729;SDS011;74950;56.832;41.398;2024-03-02T12:12:57;3.78;;;2.45;;
84729;SDS011;74950;56.832;41.398;2024-03-02T12:15:26;3.75;;;2.38;;
84729;SDS011;74950;56.832;41.398;2024-03-02T12:17:56;4.97;;;2.58;;
84729;SDS011;74950;56.832;41.398;2024-03-02T12:20:24;2.13;;;1.70;;
84729;SDS011;74950;56.832;41.398;2024-03-02T12:22:51;2.80;;;2.20;;
84729;SDS011;74950;56.832;41.398;2024-03-02T12:25:36;4.85;;;2.65;;
84729;SDS011;74950;56.832;41.398;2024-03-02T12:28:03;1.75;;;1.65;;
84729;SDS011;74950;56.832;41.398;2024-03-02T12:30:30;3.75;;;2.45;;
84729;SDS011;74950;56.832;41.398;2024-03-02T12:33:16;8.52;;;7.07;;
84729;SDS011;74950;56.832;41.398;2024-03-02T12:35:42;10.02;;;6.47;;
84729;SDS011;74950;56.832;41.398;2024-03-02T12:38:08;6.07;;;4.68;;
84729;SDS011;74950;56.832;41.398;2024-03-02T12:40:36;4.47;;;3.20;;
84729;SDS011;74950;56.832;41.398;2024-03-02T12:43:03;5.45;;;3.92;;
84729;SDS011;74950;56.832;41.398;2024-03-02T12:45:29;4.43;;;3.13;;
84729;SDS011;74950;56.832;41.398;2024-03-02T12:47:55;5.10;;;3.13;;
84729;SDS011;74950;56.832;41.398;2024-03-02T12:50:21;5.05;;;3.25;;
84729;SDS011;74950;56.832;41.398;2024-03-02T12:52:50;5.75;;;3.67;;
84729;SDS011;74950;56.832;41.398;2024-03-02T12:55:19;5.53;;;3.38;;
84729;SDS011;74950;56.832;41.398;2024-03-02T12:57:46;6.45;;;4.00;;
84729;SDS011;74950;56.832;41.398;2024-03-02T13:00:13;4.50;;;3.20;;
84729;SDS011;74950;56.832;41.398;2024-03-02T13:02:40;4.95;;;3.03;;
84729;SDS011;74950;56.832;41.398;2024-03-02T13:05:06;2.75;;;2.00;;
84729;SDS011;74950;56.832;41.398;2024-03-02T13:07:37;3.38;;;2.83;;
84729;SDS011;74950;56.832;41.398;2024-03-02T13:10:22;3.72;;;2.90;;
84729;SDS011;74950;56.832;41.398;2024-03-02T13:12:48;5.18;;;2.90;;
84729;SDS011;74950;56.832;41.398;2024-03-02T13:15:14;4.57;;;2.92;;
84729;SDS011;74950;56.832;41.398;2024-03-02T13:17:41;4.00;;;3.20;;
84729;SDS011;74950;56.832;41.398;2024-03-02T13:20:07;5.75;;;3.67;;
84729;SDS011;74950;56.832;41.398;2024-03-02T13:22:36;6.13;;;4.00;;
84729;SDS011;74950;56.832;41.398;2024-03-02T13:25:02;10.35;;;7.80;;
84729;SDS011;74950;56.832;41.398;2024-03-02T13:27:36;6.70;;;2.97;;
84729;SDS011;74950;56.832;41.398;2024-03-02T13:30:02;5.38;;;3.70;;
84729;SDS011;74950;56.832;41.398;2024-03-02T13:32:31;6.78;;;4.20;;
84729;SDS011;74950;56.832;41.398;2024-03-02T13:34:58;8.90;;;5.15;;
84729;SDS011;74950;56.832;41.398;2024-03-02T13:37:24;6.25;;;4.75;;
84729;SDS011;74950;56.832;41.398;2024-03-02T13:39:50;5.97;;;4.65;;
84729;SDS011;74950;56.832;41.398;2024-03-02T13:42:17;7.35;;;4.25;;
84729;SDS011;74950;56.832;41.398;2024-03-02T13:44:43;5.40;;;3.65;;
84729;SDS011;74950;56.832;41.398;2024-03-02T13:47:13;4.80;;;2.95;;
84729;SDS011;74950;56.832;41.398;2024-03-02T13:49:40;4.78;;;3.25;;
84729;SDS011;74950;56.832;41.398;2024-03-02T13:52:09;6.55;;;3.50;;
84729;SDS011;74950;56.832;41.398;2024-03-02T13:54:40;5.78;;;3.22;;
84729;SDS011;74950;56.832;41.398;2024-03-02T13:57:07;7.50;;;4.13;;
84729;SDS011;74950;56.832;41.398;2024-03-02T13:59:34;3.75;;;2.70;;
84729;SDS011;74950;56.832;41.398;2024-03-02T14:02:01;3.95;;;2.88;;
84729;SDS011;74950;56.832;41.398;2024-03-02T14:04:33;4.82;;;2.95;;
84729;SDS011;74950;56.832;41.398;2024-03-02T14:07:00;4.93;;;3.22;;
84729;SDS011;74950;56.832;41.398;2024-03-02T14:09:26;5.47;;;3.10;;
84729;SDS011;74950;56.832;41.398;2024-03-02T14:11:53;5.50;;;3.58;;
84729;SDS011;74950;56.832;41.398;2024-03-02T14:14:21;5.97;;;4.32;;
84729;SDS011;74950;56.832;41.398;2024-03-02T14:16:47;8.82;;;4.57;;
84729;SDS011;74950;56.832;41.398;2024-03-02T14:19:13;6.25;;;3.55;;
84729;SDS011;74950;56.832;41.398;2024-03-02T14:21:39;5.95;;;3.53;;
84729;SDS011;74950;56.832;41.398;2024-03-02T14:24:06;4.78;;;3.17;;
84729;SDS011;74950;56.832;41.398;2024-03-02T14:26:33;5.75;;;3.40;;
84729;SDS011;74950;56.832;41.398;2024-03-02T14:28:59;5.80;;;3.47;;
84729;SDS011;74950;56.832;41.398;2024-03-02T14:31:28;6.72;;;3.35;;
84729;SDS011;74950;56.832;41.398;2024-03-02T14:33:54;9.57;;;3.75;;
84729;SDS011;74950;56.832;41.398;2024-03-02T14:36:21;5.32;;;3.47;;
84729;SDS011;74950;56.832;41.398;2024-03-02T14:38:47;5.70;;;3.45;;
84729;SDS011;74950;56.832;41.398;2024-03-02T14:41:14;5.93;;;3.55;;
84729;SDS011;74950;56.832;41.398;2024-03-02T14:43:40;5.95;;;3.60;;
84729;SDS011;74950;56.832;41.398;2024-03-02T14:46:24;4.90;;;3.70;;
84729;SDS011;74950;56.832;41.398;2024-03-02T14:48:51;3.88;;;3.15;;
84729;SDS011;74950;56.832;41.398;2024-03-02T14:51:17;4.63;;;3.30;;
84729;SDS011;74950;56.832;41.398;2024-03-02T14:53:43;4.15;;;2.50;;
84729;SDS011;74950;56.832;41.398;2024-03-02T14:56:09;4.20;;;3.30;;
84729;SDS011;74950;56.832;41.398;2024-03-02T14:58:35;5.32;;;3.30;;
84729;SDS011;74950;56.832;41.398;2024-03-02T15:01:05;6.93;;;3.90;;
84729;SDS011;74950;56.832;41.398;2024-03-02T15:03:32;7.32;;;4.53;;
84729;SDS011;74950;56.832;41.398;2024-03-02T15:05:58;9.43;;;4.45;;
84729;SDS011;74950;56.832;41.398;2024-03-02T15:08:24;10.02;;;4.65;;
84729;SDS011;74950;56.832;41.398;2024-03-02T15:10:50;8.65;;;5.75;;
84729;SDS011;74950;56.832;41.398;2024-03-02T15:13:17;8.95;;;4.85;;
84729;SDS011;74950;56.832;41.398;2024-03-02T15:15:43;6.72;;;3.67;;
84729;SDS011;74950;56.832;41.398;2024-03-02T15:18:09;5.47;;;3.95;;
84729;SDS011;74950;56.832;41.398;2024-03-02T15:20:35;7.78;;;3.75;;
84729;SDS011;74950;56.832;41.398;2024-03-02T15:23:01;7.40;;;3.97;;
84729;SDS011;74950;56.832;41.398;2024-03-02T15:25:28;6.60;;;4.30;;
84729;SDS011;74950;56.832;41.398;2024-03-02T15:27:54;5.65;;;3.90;;
84729;SDS011;74950;56.832;41.398;2024-03-02T15:30:20;5.22;;;4.00;;
84729;SDS011;74950;56.832;41.398;2024-03-02T15:32:46;4.53;;;3.72;;
84729;SDS011;74950;56.832;41.398;2024-03-02T15:35:12;4.40;;;3.10;;
84729;SDS011;74950;56.832;41.398;2024-03-02T15:37:38;3.95;;;2.63;;
84729;SDS011;74950;56.832;41.398;2024-03-02T15:40:05;4.10;;;3.33;;
84729;SDS011;74950;56.832;41.398;2024-03-02T15:42:33;4.55;;;2.95;;
84729;SDS011;74950;56.832;41.398;2024-03-02T15:45:00;5.93;;;3.65;;
84729;SDS011;74950;56.832;41.398;2024-03-02T15:47:27;7.10;;;5.22;;
84729;SDS011;74950;56.832;41.398;2024-03-02T15:49:53;8.73;;;5.10;;
84729;SDS011;74950;56.832;41.398;2024-03-02T15:52:19;6.32;;;4.40;;
84729;SDS011;74950;56.832;41.398;2024-03-02T15:54:47;6.82;;;5.07;;
84729;SDS011;74950;56.832;41.398;2024-03-02T15:57:15;10.68;;;5.88;;
84729;SDS011;74950;56.832;41.398;2024-03-02T15:59:42;8.05;;;4.40;;
84729;SDS011;74950;56.832;41.398;2024-03-02T16:02:09;7.63;;;4.90;;
84729;SDS011;74950;56.832;41.398;2024-03-02T16:04:35;7.00;;;4.00;;
84729;SDS011;74950;56.832;41.398;2024-03-02T16:07:01;11.02;;;4.85;;
84729;SDS011;74950;56.832;41.398;2024-03-02T16:09:27;9.98;;;4.53;;
84729;SDS011;74950;56.832;41.398;2024-03-02T16:11:53;7.53;;;4.70;;
84729;SDS011;74950;56.832;41.398;2024-03-02T16:14:20;7.18;;;4.30;;
84729;SDS011;74950;56.832;41.398;2024-03-02T16:16:46;9.85;;;5.72;;
84729;SDS011;74950;56.832;41.398;2024-03-02T16:19:12;15.27;;;5.88;;
84729;SDS011;74950;56.832;41.398;2024-03-02T16:21:38;10.00;;;6.05;;
84729;SDS011;74950;56.832;41.398;2024-03-02T16:24:04;12.07;;;6.97;;
84729;SDS011;74950;56.832;41.398;2024-03-02T16:26:30;10.55;;;5.60;;
84729;SDS011;74950;56.832;41.398;2024-03-02T16:28:57;9.93;;;6.78;;
84729;SDS011;74950;56.832;41.398;2024-03-02T16:31:23;10.23;;;6.18;;
84729;SDS011;74950;56.832;41.398;2024-03-02T16:33:50;9.00;;;5.72;;
84729;SDS011;74950;56.832;41.398;2024-03-02T16:36:16;13.10;;;6.05;;
84729;SDS011;74950;56.832;41.398;2024-03-02T16:38:42;15.90;;;6.53;;
84729;SDS011;74950;56.832;41.398;2024-03-02T16:41:09;9.65;;;5.50;;
84729;SDS011;74950;56.832;41.398;2024-03-02T16:43:35;12.25;;;7.00;;
84729;SDS011;74950;56.832;41.398;2024-03-02T16:46:02;10.48;;;6.82;;
84729;SDS011;74950;56.832;41.398;2024-03-02T16:48:31;18.20;;;8.75;;
84729;SDS011;74950;56.832;41.398;2024-03-02T16:50:57;19.92;;;9.15;;
84729;SDS011;74950;56.832;41.398;2024-03-02T16:53:23;14.23;;;7.95;;
84729;SDS011;74950;56.832;41.398;2024-03-02T16:55:49;16.15;;;7.45;;
84729;SDS011;74950;56.832;41.398;2024-03-02T16:58:16;13.13;;;8.20;;
84729;SDS011;74950;56.832;41.398;2024-03-02T17:00:44;14.30;;;8.13;;
84729;SDS011;74950;56.832;41.398;2024-03-02T17:03:11;14.40;;;7.95;;
84729;SDS011;74950;56.832;41.398;2024-03-02T17:05:37;14.75;;;7.97;;
84729;SDS011;74950;56.832;41.398;2024-03-02T17:08:03;15.73;;;8.18;;
84729;SDS011;74950;56.832;41.398;2024-03-02T17:10:30;13.98;;;7.30;;
84729;SDS011;74950;56.832;41.398;2024-03-02T17:12:56;17.17;;;8.70;;
84729;SDS011;74950;56.832;41.398;2024-03-02T17:15:25;16.38;;;8.77;;
84729;SDS011;74950;56.832;41.398;2024-03-02T17:17:52;15.23;;;8.55;;
84729;SDS011;74950;56.832;41.398;2024-03-02T17:20:19;17.90;;;9.75;;
84729;SDS011;74950;56.832;41.398;2024-03-02T17:22:46;13.23;;;7.57;;
84729;SDS011;74950;56.832;41.398;2024-03-02T17:25:12;11.55;;;7.30;;
84729;SDS011;74950;56.832;41.398;2024-03-02T17:27:38;8.98;;;4.97;;
84729;SDS011;74950;56.832;41.398;2024-03-02T17:30:04;10.07;;;5.72;;
84729;SDS011;74950;56.832;41.398;2024-03-02T17:32:31;10.48;;;5.28;;
84729;SDS011;74950;56.832;41.398;2024-03-02T17:34:58;8.20;;;4.75;;
84729;SDS011;74950;56.832;41.398;2024-03-02T17:37:25;9.75;;;5.78;;
84729;SDS011;74950;56.832;41.398;2024-03-02T17:39:51;8.63;;;6.20;;
84729;SDS011;74950;56.832;41.398;2024-03-02T17:42:19;7.30;;;5.03;;
84729;SDS011;74950;56.832;41.398;2024-03-02T17:44:45;8.43;;;5.53;;
84729;SDS011;74950;56.832;41.398;2024-03-02T17:47:11;15.60;;;7.07;;
84729;SDS011;74950;56.832;41.398;2024-03-02T17:49:38;11.40;;;5.47;;
84729;SDS011;74950;56.832;41.398;2024-03-02T17:52:04;10.23;;;5.47;;
84729;SDS011;74950;56.832;41.398;2024-03-02T17:54:31;10.70;;;6.07;;
84729;SDS011;74950;56.832;41.398;2024-03-02T17:56:59;11.15;;;5.22;;
84729;SDS011;74950;56.832;41.398;2024-03-02T17:59:44;9.20;;;4.78;;
84729;SDS011;74950;56.832;41.398;2024-03-02T18:02:10;7.15;;;4.38;;
84729;SDS011;74950;56.832;41.398;2024-03-02T18:04:36;7.70;;;3.83;;
84729;SDS011;74950;56.832;41.398;2024-03-02T18:07:02;6.60;;;3.10;;
84729;SDS011;74950;56.832;41.398;2024-03-02T18:09:29;5.85;;;3.67;;
84729;SDS011;74950;56.832;41.398;2024-03-02T18:11:55;6.35;;;3.70;;
84729;SDS011;74950;56.832;41.398;2024-03-02T18:14:21;6.10;;;3.60;;
84729;SDS011;74950;56.832;41.398;2024-03-02T18:16:48;7.05;;;4.47;;
84729;SDS011;74950;56.832;41.398;2024-03-02T18:19:14;8.15;;;4.50;;
84729;SDS011;74950;56.832;41.398;2024-03-02T18:21:40;9.07;;;4.50;;
84729;SDS011;74950;56.832;41.398;2024-03-02T18:24:06;10.50;;;5.25;;
84729;SDS011;74950;56.832;41.398;2024-03-02T18:26:32;9.23;;;5.45;;
84729;SDS011;74950;56.832;41.398;2024-03-02T18:29:00;10.68;;;5.28;;
84729;SDS011;74950;56.832;41.398;2024-03-02T18:31:26;8.10;;;5.65;;
84729;SDS011;74950;56.832;41.398;2024-03-02T18:33:52;13.88;;;7.28;;
84729;SDS011;74950;56.832;41.398;2024-03-02T18:36:19;12.48;;;6.22;;
84729;SDS011;74950;56.832;41.398;2024-03-02T18:38:45;11.93;;;6.07;;
84729;SDS011;74950;56.832;41.398;2024-03-02T18:41:11;12.52;;;6.30;;
84729;SDS011;74950;56.832;41.398;2024-03-02T18:43:37;15.10;;;7.43;;
84729;SDS011;74950;56.832;41.398;2024-03-02T18:46:22;13.82;;;6.82;;
84729;SDS011;74950;56.832;41.398;2024-03-02T18:48:48;19.48;;;10.85;;
84729;SDS011;74950;56.832;41.398;2024-03-02T18:51:14;15.45;;;8.18;;
84729;SDS011;74950;56.832;41.398;2024-03-02T18:53:59;21.08;;;11.82;;
84729;SDS011;74950;56.832;41.398;2024-03-02T18:56:25;54.80;;;28.80;;
84729;SDS011;74950;56.832;41.398;2024-03-02T18:58:52;45.67;;;22.80;;
84729;SDS011;74950;56.832;41.398;2024-03-02T19:01:18;31.00;;;16.13;;
84729;SDS011;74950;56.832;41.398;2024-03-02T19:03:45;21.75;;;11.45;;
84729;SDS011;74950;56.832;41.398;2024-03-02T19:06:15;21.23;;;11.63;;
84729;SDS011;74950;56.832;41.398;2024-03-02T19:08:41;20.42;;;10.13;;
84729;SDS011;74950;56.832;41.398;2024-03-02T19:11:17;19.15;;;9.32;;
84729;SDS011;74950;56.832;41.398;2024-03-02T19:13:47;17.90;;;9.02;;
84729;SDS011;74950;56.832;41.398;2024-03-02T19:16:13;12.93;;;6.88;;
84729;SDS011;74950;56.832;41.398;2024-03-02T19:18:41;13.27;;;8.60;;
84729;SDS011;74950;56.832;41.398;2024-03-02T19:21:09;13.15;;;7.30;;
84729;SDS011;74950;56.832;41.398;2024-03-02T19:23:35;13.75;;;6.43;;
84729;SDS011;74950;56.832;41.398;2024-03-02T19:26:02;13.07;;;7.40;;
84729;SDS011;74950;56.832;41.398;2024-03-02T19:28:32;10.93;;;6.47;;
84729;SDS011;74950;56.832;41.398;2024-03-02T19:30:58;14.68;;;7.18;;
84729;SDS011;74950;56.832;41.398;2024-03-02T19:33:24;15.00;;;7.55;;
84729;SDS011;74950;56.832;41.398;2024-03-02T19:35:51;14.27;;;6.30;;
84729;SDS011;74950;56.832;41.398;2024-03-02T19:38:17;12.38;;;7.18;;
84729;SDS011;74950;56.832;41.398;2024-03-02T19:40:44;11.80;;;6.20;;
84729;SDS011;74950;56.832;41.398;2024-03-02T19:43:10;12.52;;;6.47;;
84729;SDS011;74950;56.832;41.398;2024-03-02T19:45:36;9.63;;;6.10;;
84729;SDS011;74950;56.832;41.398;2024-03-02T19:48:02;10.80;;;5.03;;
84729;SDS011;74950;56.832;41.398;2024-03-02T19:50:29;10.15;;;5.38;;
84729;SDS011;74950;56.832;41.398;2024-03-02T19:52:55;10.88;;;6.43;;
84729;SDS011;74950;56.832;41.398;2024-03-02T19:55:21;11.60;;;6.40;;
84729;SDS011;74950;56.832;41.398;2024-03-02T19:57:54;14.60;;;8.10;;
84729;SDS011;74950;56.832;41.398;2024-03-02T20:00:21;11.15;;;5.72;;
84729;SDS011;74950;56.832;41.398;2024-03-02T20:02:47;9.68;;;5.38;;
84729;SDS011;74950;56.832;41.398;2024-03-02T20:05:13;10.15;;;5.35;;
84729;SDS011;74950;56.832;41.398;2024-03-02T20:07:41;11.27;;;6.07;;
84729;SDS011;74950;56.832;41.398;2024-03-02T20:10:07;8.57;;;4.88;;
84729;SDS011;74950;56.832;41.398;2024-03-02T20:12:36;10.57;;;6.13;;
84729;SDS011;74950;56.832;41.398;2024-03-02T20:15:03;10.32;;;6.32;;
84729;SDS011;74950;56.832;41.398;2024-03-02T20:17:32;8.80;;;5.05;;
84729;SDS011;74950;56.832;41.398;2024-03-02T20:19:58;9.63;;;5.95;;
84729;SDS011;74950;56.832;41.398;2024-03-02T20:22:24;9.35;;;6.25;;
84729;SDS011;74950;56.832;41.398;2024-03-02T20:24:50;7.35;;;4.10;;
84729;SDS011;74950;56.832;41.398;2024-03-02T20:27:35;5.70;;;3.33;;
84729;SDS011;74950;56.832;41.398;2024-03-02T20:30:01;6.53;;;2.67;;
84729;SDS011;74950;56.832;41.398;2024-03-02T20:32:29;7.50;;;3.63;;
84729;SDS011;74950;56.832;41.398;2024-03-02T20:35:14;6.43;;;4.07;;
84729;SDS011;74950;56.832;41.398;2024-03-02T20:37:40;10.88;;;5.22;;
84729;SDS011;74950;56.832;41.398;2024-03-02T20:40:06;18.67;;;8.18;;
84729;SDS011;74950;56.832;41.398;2024-03-02T20:42:33;16.10;;;7.85;;
84729;SDS011;74950;56.832;41.398;2024-03-02T20:44:59;18.30;;;7.72;;
84729;SDS011;74950;56.832;41.398;2024-03-02T20:47:25;11.43;;;5.63;;
84729;SDS011;74950;56.832;41.398;2024-03-02T20:49:51;15.80;;;7.93;;
84729;SDS011;74950;56.832;41.398;2024-03-02T20:52:36;19.98;;;8.95;;
84729;SDS011;74950;56.832;41.398;2024-03-02T20:55:02;35.28;;;13.57;;
84729;SDS011;74950;56.832;41.398;2024-03-02T20:57:31;39.78;;;15.80;;
84729;SDS011;74950;56.832;41.398;2024-03-02T20:59:57;35.72;;;15.70;;
84729;SDS011;74950;56.832;41.398;2024-03-02T21:02:23;33.42;;;13.10;;
84729;SDS011;74950;56.832;41.398;2024-03-02T21:04:50;23.38;;;12.00;;
84729;SDS011;74950;56.832;41.398;2024-03-02T21:07:16;25.75;;;12.30;;
84729;SDS011;74950;56.832;41.398;2024-03-02T21:09:44;24.42;;;12.63;;
84729;SDS011;74950;56.832;41.398;2024-03-02T21:12:10;25.85;;;11.68;;
84729;SDS011;74950;56.832;41.398;2024-03-02T21:14:36;22.33;;;11.10;;
84729;SDS011;74950;56.832;41.398;2024-03-02T21:17:05;21.67;;;10.05;;
84729;SDS011;74950;56.832;41.398;2024-03-02T21:19:31;18.60;;;9.82;;
84729;SDS011;74950;56.832;41.398;2024-03-02T21:21:57;17.70;;;8.98;;
84729;SDS011;74950;56.832;41.398;2024-03-02T21:24:24;20.67;;;9.90;;
84729;SDS011;74950;56.832;41.398;2024-03-02T21:26:50;17.70;;;9.05;;
84729;SDS011;74950;56.832;41.398;2024-03-02T21:29:16;14.98;;;7.75;;
84729;SDS011;74950;56.832;41.398;2024-03-02T21:31:49;17.50;;;9.20;;
84729;SDS011;74950;56.832;41.398;2024-03-02T21:34:17;12.88;;;5.82;;
84729;SDS011;74950;56.832;41.398;2024-03-02T21:36:43;16.08;;;8.52;;
84729;SDS011;74950;56.832;41.398;2024-03-02T21:39:09;16.17;;;7.03;;
84729;SDS011;74950;56.832;41.398;2024-03-02T21:41:35;19.00;;;9.52;;
84729;SDS011;74950;56.832;41.398;2024-03-02T21:44:02;21.55;;;10.43;;
84729;SDS011;74950;56.832;41.398;2024-03-02T21:46:28;26.77;;;12.15;;
84729;SDS011;74950;56.832;41.398;2024-03-02T21:48:54;24.55;;;11.38;;
84729;SDS011;74950;56.832;41.398;2024-03-02T21:51:21;26.52;;;12.10;;
84729;SDS011;74950;56.832;41.398;2024-03-02T21:53:47;22.45;;;11.93;;
84729;SDS011;74950;56.832;41.398;2024-03-02T21:56:13;24.67;;;12.68;;
84729;SDS011;74950;56.832;41.398;2024-03-02T21:58:40;27.08;;;13.35;;
84729;SDS011;74950;56.832;41.398;2024-03-02T22:01:06;27.00;;;13.85;;
84729;SDS011;74950;56.832;41.398;2024-03-02T22:03:33;35.58;;;16.58;;
84729;SDS011;74950;56.832;41.398;2024-03-02T22:05:59;31.42;;;14.63;;
84729;SDS011;74950;56.832;41.398;2024-03-02T22:08:25;27.88;;;13.48;;
84729;SDS011;74950;56.832;41.398;2024-03-02T22:10:54;23.10;;;11.90;;
84729;SDS011;74950;56.832;41.398;2024-03-02T22:13:20;23.60;;;9.70;;
84729;SDS011;74950;56.832;41.398;2024-03-02T22:15:47;19.77;;;9.18;;
84729;SDS011;74950;56.832;41.398;2024-03-02T22:18:13;17.20;;;8.88;;
84729;SDS011;74950;56.832;41.398;2024-03-02T22:20:39;26.10;;;12.07;;
84729;SDS011;74950;56.832;41.398;2024-03-02T22:23:05;25.02;;;11.98;;
84729;SDS011;74950;56.832;41.398;2024-03-02T22:25:31;29.77;;;13.85;;
84729;SDS011;74950;56.832;41.398;2024-03-02T22:27:57;21.77;;;11.13;;
84729;SDS011;74950;56.832;41.398;2024-03-02T22:30:24;19.33;;;10.35;;
84729;SDS011;74950;56.832;41.398;2024-03-02T22:32:52;24.63;;;12.57;;
84729;SDS011;74950;56.832;41.398;2024-03-02T22:35:18;23.25;;;10.02;;
84729;SDS011;74950;56.832;41.398;2024-03-02T22:37:44;19.30;;;9.55;;
84729;SDS011;74950;56.832;41.398;2024-03-02T22:40:10;21.52;;;10.55;;
84729;SDS011;74950;56.832;41.398;2024-03-02T22:42:36;20.25;;;9.02;;
84729;SDS011;74950;56.832;41.398;2024-03-02T22:45:04;16.23;;;8.48;;
84729;SDS011;74950;56.832;41.398;2024-03-02T22:47:31;17.30;;;8.48;;
84729;SDS011;74950;56.832;41.398;2024-03-02T22:49:57;17.20;;;8.63;;
84729;SDS011;74950;56.832;41.398;2024-03-02T22:52:24;14.93;;;8.45;;
84729;SDS011;74950;56.832;41.398;2024-03-02T22:54:51;17.30;;;8.93;;
84729;SDS011;74950;56.832;41.398;2024-03-02T22:57:17;15.30;;;8.48;;
84729;SDS011;74950;56.832;41.398;2024-03-02T22:59:49;21.27;;;9.82;;
84729;SDS011;74950;56.832;41.398;2024-03-02T23:02:16;32.53;;;12.18;;
84729;SDS011;74950;56.832;41.398;2024-03-02T23:04:43;23.20;;;9.18;;
84729;SDS011;74950;56.832;41.398;2024-03-02T23:07:12;22.95;;;9.63;;
84729;SDS011;74950;56.832;41.398;2024-03-02T23:09:47;24.52;;;10.45;;
84729;SDS011;74950;56.832;41.398;2024-03-02T23:12:15;30.98;;;10.90;;
84729;SDS011;74950;56.832;41.398;2024-03-02T23:14:41;24.85;;;10.50;;
84729;SDS011;74950;56.832;41.398;2024-03-02T23:17:07;20.48;;;9.35;;
84729;SDS011;74950;56.832;41.398;2024-03-02T23:19:33;30.08;;;10.55;;
84729;SDS011;74950;56.832;41.398;2024-03-02T23:21:59;31.85;;;10.20;;
84729;SDS011;74950;56.832;41.398;2024-03-02T23:24:26;42.75;;;13.82;;
84729;SDS011;74950;56.832;41.398;2024-03-02T23:26:52;44.38;;;13.85;;
84729;SDS011;74950;56.832;41.398;2024-03-02T23:29:18;41.58;;;14.38;;
84729;SDS011;74950;56.832;41.398;2024-03-02T23:31:45;51.72;;;14.50;;
84729;SDS011;74950;56.832;41.398;2024-03-02T23:34:11;46.70;;;17.63;;
84729;SDS011;74950;56.832;41.398;2024-03-02T23:36:38;97.55;;;19.55;;
84729;SDS011;74950;56.832;41.398;2024-03-02T23:39:04;161.00;;;22.10;;
84729;SDS011;74950;56.832;41.398;2024-03-02T23:41:30;120.68;;;20.27;;
84729;SDS011;74950;56.832;41.398;2024-03-02T23:43:57;99.32;;;19.67;;
84729;SDS011;74950;56.832;41.398;2024-03-02T23:46:26;100.13;;;15.57;;
84729;SDS011;74950;56.832;41.398;2024-03-02T23:48:53;112.00;;;16.35;;